Watton, United Kingdom
Current Conditions -  °F | °C
As of 2:50 PM on Saturday 22 Nov 2014 (Local Time) from EGXV Reporting Station
Haze Haze  
Wind Chill: 55°   Ceiling: 4200
Heat Index: 55°   Visibility: 2.9mi
Dew Point: 55°   Wind: 6mph
Humidity: 100%   Direction: 180°S
Pressure: 29.85"   Gusts: NA
Location:  53.93°N, 0.45°W
Report Text: EGXV 221450Z AUTO 18005KT 4700 BR BKN042/// 13/13 Q1011 RERA
Loading
Personal Weather Stations






























Interactive Weather Map New forecast layout! Learn more

10-Day Weather Forecast

Advertisements
Track Severe Weather on mobile